sensor_id;sensor_type;location;lat;lon;timestamp;P1;durP1;ratioP1;P2;durP2;ratioP2
59907;SDS011;61804;54.926;73.496;2022-11-15T00:02:18;4.35;;;3.45;;
59907;SDS011;61804;54.926;73.496;2022-11-15T00:05:15;3.05;;;2.80;;
59907;SDS011;61804;54.926;73.496;2022-11-15T00:08:02;2.90;;;2.60;;
59907;SDS011;61804;54.926;73.496;2022-11-15T00:10:58;3.45;;;2.90;;
59907;SDS011;61804;54.926;73.496;2022-11-15T00:13:54;2.60;;;1.70;;
59907;SDS011;61804;54.926;73.496;2022-11-15T00:16:40;1.70;;;1.60;;
59907;SDS011;61804;54.926;73.496;2022-11-15T00:19:31;4.88;;;3.85;;
59907;SDS011;61804;54.926;73.496;2022-11-15T00:22:23;2.45;;;2.25;;
59907;SDS011;61804;54.926;73.496;2022-11-15T00:25:14;3.03;;;2.70;;
59907;SDS011;61804;54.926;73.496;2022-11-15T00:28:07;9.88;;;8.38;;
59907;SDS011;61804;54.926;73.496;2022-11-15T00:30:53;2.40;;;2.25;;
59907;SDS011;61804;54.926;73.496;2022-11-15T00:33:42;5.28;;;2.85;;
59907;SDS011;61804;54.926;73.496;2022-11-15T00:36:28;12.05;;;9.73;;
59907;SDS011;61804;54.926;73.496;2022-11-15T00:42:00;5.65;;;4.88;;
59907;SDS011;61804;54.926;73.496;2022-11-15T00:44:46;5.70;;;5.15;;
59907;SDS011;61804;54.926;73.496;2022-11-15T00:47:37;9.25;;;4.50;;
59907;SDS011;61804;54.926;73.496;2022-11-15T00:53:09;5.28;;;4.15;;
59907;SDS011;61804;54.926;73.496;2022-11-15T00:55:55;6.50;;;5.00;;
59907;SDS011;61804;54.926;73.496;2022-11-15T00:58:42;3.90;;;3.40;;
59907;SDS011;61804;54.926;73.496;2022-11-15T01:01:29;9.85;;;5.28;;
59907;SDS011;61804;54.926;73.496;2022-11-15T01:04:16;4.85;;;3.90;;
59907;SDS011;61804;54.926;73.496;2022-11-15T01:07:03;4.03;;;3.65;;
59907;SDS011;61804;54.926;73.496;2022-11-15T01:09:49;5.72;;;4.40;;
59907;SDS011;61804;54.926;73.496;2022-11-15T01:15:22;10.35;;;6.93;;
59907;SDS011;61804;54.926;73.496;2022-11-15T01:20:53;9.30;;;5.97;;
59907;SDS011;61804;54.926;73.496;2022-11-15T01:23:40;4.40;;;3.70;;
59907;SDS011;61804;54.926;73.496;2022-11-15T01:26:31;4.70;;;3.88;;
59907;SDS011;61804;54.926;73.496;2022-11-15T01:29:27;8.50;;;3.90;;
59907;SDS011;61804;54.926;73.496;2022-11-15T01:32:13;3.45;;;2.60;;
59907;SDS011;61804;54.926;73.496;2022-11-15T01:35:00;2.28;;;1.83;;
59907;SDS011;61804;54.926;73.496;2022-11-15T01:37:48;2.45;;;2.25;;
59907;SDS011;61804;54.926;73.496;2022-11-15T01:40:35;2.55;;;1.38;;
59907;SDS011;61804;54.926;73.496;2022-11-15T01:43:23;5.65;;;2.42;;
59907;SDS011;61804;54.926;73.496;2022-11-15T01:49:19;2.83;;;2.28;;
59907;SDS011;61804;54.926;73.496;2022-11-15T01:52:08;5.25;;;2.63;;
59907;SDS011;61804;54.926;73.496;2022-11-15T01:54:56;4.88;;;3.05;;
59907;SDS011;61804;54.926;73.496;2022-11-15T01:57:47;4.13;;;2.42;;
59907;SDS011;61804;54.926;73.496;2022-11-15T02:00:36;2.13;;;2.00;;
59907;SDS011;61804;54.926;73.496;2022-11-15T02:06:08;3.08;;;2.78;;
59907;SDS011;61804;54.926;73.496;2022-11-15T02:08:53;7.53;;;5.43;;
59907;SDS011;61804;54.926;73.496;2022-11-15T02:11:41;5.72;;;4.15;;
59907;SDS011;61804;54.926;73.496;2022-11-15T02:14:27;6.70;;;5.35;;
59907;SDS011;61804;54.926;73.496;2022-11-15T02:17:24;8.90;;;5.30;;
59907;SDS011;61804;54.926;73.496;2022-11-15T02:20:30;5.32;;;4.32;;
59907;SDS011;61804;54.926;73.496;2022-11-15T02:23:44;8.07;;;5.75;;
59907;SDS011;61804;54.926;73.496;2022-11-15T02:29:42;5.15;;;3.55;;
59907;SDS011;61804;54.926;73.496;2022-11-15T02:32:36;9.88;;;8.20;;
59907;SDS011;61804;54.926;73.496;2022-11-15T02:38:22;6.57;;;5.93;;
59907;SDS011;61804;54.926;73.496;2022-11-15T02:41:10;6.25;;;5.68;;
59907;SDS011;61804;54.926;73.496;2022-11-15T02:44:12;9.60;;;4.68;;
59907;SDS011;61804;54.926;73.496;2022-11-15T02:47:09;4.40;;;3.85;;
59907;SDS011;61804;54.926;73.496;2022-11-15T02:49:59;4.10;;;3.70;;
59907;SDS011;61804;54.926;73.496;2022-11-15T02:52:47;8.23;;;6.85;;
59907;SDS011;61804;54.926;73.496;2022-11-15T02:55:37;6.55;;;5.93;;
59907;SDS011;61804;54.926;73.496;2022-11-15T03:01:36;5.25;;;3.97;;
59907;SDS011;61804;54.926;73.496;2022-11-15T03:17:04;7.07;;;6.38;;
59907;SDS011;61804;54.926;73.496;2022-11-15T03:20:03;2.05;;;1.80;;
59907;SDS011;61804;54.926;73.496;2022-11-15T03:22:49;3.05;;;2.33;;
59907;SDS011;61804;54.926;73.496;2022-11-15T03:25:38;3.72;;;3.17;;
59907;SDS011;61804;54.926;73.496;2022-11-15T03:28:33;2.63;;;2.22;;
59907;SDS011;61804;54.926;73.496;2022-11-15T03:31:20;3.08;;;2.83;;
59907;SDS011;61804;54.926;73.496;2022-11-15T03:37:15;8.75;;;8.00;;
59907;SDS011;61804;54.926;73.496;2022-11-15T03:40:11;4.05;;;3.58;;
59907;SDS011;61804;54.926;73.496;2022-11-15T03:43:14;4.60;;;4.20;;
59907;SDS011;61804;54.926;73.496;2022-11-15T03:46:25;4.28;;;3.72;;
59907;SDS011;61804;54.926;73.496;2022-11-15T03:49:14;21.10;;;3.73;;
59907;SDS011;61804;54.926;73.496;2022-11-15T03:52:11;3.50;;;2.75;;
59907;SDS011;61804;54.926;73.496;2022-11-15T03:54:58;1.83;;;1.70;;
59907;SDS011;61804;54.926;73.496;2022-11-15T03:57:46;3.65;;;3.35;;
59907;SDS011;61804;54.926;73.496;2022-11-15T04:00:34;4.60;;;3.50;;
59907;SDS011;61804;54.926;73.496;2022-11-15T04:03:20;8.68;;;6.78;;
59907;SDS011;61804;54.926;73.496;2022-11-15T04:06:06;7.18;;;6.18;;
59907;SDS011;61804;54.926;73.496;2022-11-15T04:09:03;9.63;;;8.73;;
59907;SDS011;61804;54.926;73.496;2022-11-15T04:11:48;11.75;;;10.57;;
59907;SDS011;61804;54.926;73.496;2022-11-15T04:14:34;4.40;;;3.60;;
59907;SDS011;61804;54.926;73.496;2022-11-15T04:17:25;4.47;;;3.40;;
59907;SDS011;61804;54.926;73.496;2022-11-15T04:20:19;3.75;;;2.97;;
59907;SDS011;61804;54.926;73.496;2022-11-15T04:23:23;2.70;;;2.00;;
59907;SDS011;61804;54.926;73.496;2022-11-15T04:26:28;4.00;;;3.03;;
59907;SDS011;61804;54.926;73.496;2022-11-15T04:29:25;3.67;;;2.85;;
59907;SDS011;61804;54.926;73.496;2022-11-15T04:32:19;2.58;;;2.38;;
59907;SDS011;61804;54.926;73.496;2022-11-15T04:37:51;3.75;;;3.35;;
59907;SDS011;61804;54.926;73.496;2022-11-15T04:40:42;6.13;;;3.97;;
59907;SDS011;61804;54.926;73.496;2022-11-15T04:43:28;7.15;;;4.70;;
59907;SDS011;61804;54.926;73.496;2022-11-15T04:46:14;3.72;;;3.42;;
59907;SDS011;61804;54.926;73.496;2022-11-15T04:49:00;12.27;;;11.00;;
59907;SDS011;61804;54.926;73.496;2022-11-15T04:51:45;2.58;;;2.38;;
59907;SDS011;61804;54.926;73.496;2022-11-15T04:54:31;2.83;;;2.08;;
59907;SDS011;61804;54.926;73.496;2022-11-15T04:57:18;5.57;;;2.58;;
59907;SDS011;61804;54.926;73.496;2022-11-15T05:00:05;2.40;;;2.15;;
59907;SDS011;61804;54.926;73.496;2022-11-15T05:02:51;2.85;;;2.10;;
59907;SDS011;61804;54.926;73.496;2022-11-15T05:05:56;5.45;;;3.40;;
59907;SDS011;61804;54.926;73.496;2022-11-15T05:08:42;6.72;;;3.72;;
59907;SDS011;61804;54.926;73.496;2022-11-15T05:11:31;2.42;;;2.22;;
59907;SDS011;61804;54.926;73.496;2022-11-15T05:14:18;7.82;;;5.88;;
59907;SDS011;61804;54.926;73.496;2022-11-15T05:17:04;3.88;;;2.80;;
59907;SDS011;61804;54.926;73.496;2022-11-15T05:19:50;3.50;;;3.20;;
59907;SDS011;61804;54.926;73.496;2022-11-15T05:22:38;5.15;;;2.58;;
59907;SDS011;61804;54.926;73.496;2022-11-15T05:25:29;6.55;;;5.90;;
59907;SDS011;61804;54.926;73.496;2022-11-15T05:28:14;5.00;;;4.47;;
59907;SDS011;61804;54.926;73.496;2022-11-15T05:31:22;7.85;;;6.55;;
59907;SDS011;61804;54.926;73.496;2022-11-15T05:34:09;8.63;;;7.65;;
59907;SDS011;61804;54.926;73.496;2022-11-15T05:36:55;4.05;;;3.75;;
59907;SDS011;61804;54.926;73.496;2022-11-15T05:39:42;2.30;;;2.15;;
59907;SDS011;61804;54.926;73.496;2022-11-15T05:42:28;5.45;;;3.63;;
59907;SDS011;61804;54.926;73.496;2022-11-15T05:45:15;6.07;;;4.22;;
59907;SDS011;61804;54.926;73.496;2022-11-15T05:48:03;20.48;;;18.35;;
59907;SDS011;61804;54.926;73.496;2022-11-15T05:50:50;3.40;;;3.10;;
59907;SDS011;61804;54.926;73.496;2022-11-15T05:53:37;6.93;;;2.22;;
59907;SDS011;61804;54.926;73.496;2022-11-15T05:56:23;4.13;;;2.38;;
59907;SDS011;61804;54.926;73.496;2022-11-15T06:01:54;6.75;;;2.53;;
59907;SDS011;61804;54.926;73.496;2022-11-15T06:04:39;3.08;;;2.83;;
59907;SDS011;61804;54.926;73.496;2022-11-15T06:07:26;2.25;;;1.88;;
59907;SDS011;61804;54.926;73.496;2022-11-15T06:10:12;2.08;;;1.92;;
59907;SDS011;61804;54.926;73.496;2022-11-15T06:13:02;4.20;;;3.17;;
59907;SDS011;61804;54.926;73.496;2022-11-15T06:15:55;3.83;;;3.53;;
59907;SDS011;61804;54.926;73.496;2022-11-15T06:18:46;10.90;;;6.57;;
59907;SDS011;61804;54.926;73.496;2022-11-15T06:21:32;8.07;;;5.90;;
59907;SDS011;61804;54.926;73.496;2022-11-15T06:24:18;4.38;;;3.45;;
59907;SDS011;61804;54.926;73.496;2022-11-15T06:27:15;4.93;;;4.05;;
59907;SDS011;61804;54.926;73.496;2022-11-15T06:30:03;7.00;;;5.45;;
59907;SDS011;61804;54.926;73.496;2022-11-15T06:32:49;15.90;;;9.90;;
59907;SDS011;61804;54.926;73.496;2022-11-15T06:35:36;1.27;;;1.17;;
59907;SDS011;61804;54.926;73.496;2022-11-15T06:38:23;3.25;;;2.78;;
59907;SDS011;61804;54.926;73.496;2022-11-15T06:41:10;1.65;;;1.50;;
59907;SDS011;61804;54.926;73.496;2022-11-15T06:44:06;2.58;;;2.25;;
59907;SDS011;61804;54.926;73.496;2022-11-15T06:46:51;2.80;;;1.88;;
59907;SDS011;61804;54.926;73.496;2022-11-15T06:49:36;2.40;;;2.20;;
59907;SDS011;61804;54.926;73.496;2022-11-15T06:52:26;0.77;;;0.77;;
59907;SDS011;61804;54.926;73.496;2022-11-15T06:55:17;1.08;;;0.88;;
59907;SDS011;61804;54.926;73.496;2022-11-15T06:58:09;1.80;;;1.25;;
59907;SDS011;61804;54.926;73.496;2022-11-15T07:00:59;1.90;;;1.33;;
59907;SDS011;61804;54.926;73.496;2022-11-15T07:03:55;2.70;;;1.98;;
59907;SDS011;61804;54.926;73.496;2022-11-15T07:06:40;1.67;;;1.45;;
59907;SDS011;61804;54.926;73.496;2022-11-15T07:12:12;2.38;;;2.10;;
59907;SDS011;61804;54.926;73.496;2022-11-15T07:14:57;3.97;;;3.58;;
59907;SDS011;61804;54.926;73.496;2022-11-15T07:17:43;2.67;;;1.52;;
59907;SDS011;61804;54.926;73.496;2022-11-15T07:20:37;4.47;;;3.60;;
59907;SDS011;61804;54.926;73.496;2022-11-15T07:23:24;6.32;;;5.43;;
59907;SDS011;61804;54.926;73.496;2022-11-15T07:26:09;3.42;;;2.78;;
59907;SDS011;61804;54.926;73.496;2022-11-15T07:28:57;0.90;;;0.90;;
59907;SDS011;61804;54.926;73.496;2022-11-15T07:31:43;2.25;;;1.60;;
59907;SDS011;61804;54.926;73.496;2022-11-15T07:34:29;1.52;;;1.27;;
59907;SDS011;61804;54.926;73.496;2022-11-15T07:37:14;4.55;;;2.38;;
59907;SDS011;61804;54.926;73.496;2022-11-15T07:40:08;2.50;;;1.98;;
59907;SDS011;61804;54.926;73.496;2022-11-15T07:43:05;2.17;;;1.55;;
59907;SDS011;61804;54.926;73.496;2022-11-15T07:45:53;1.85;;;1.38;;
59907;SDS011;61804;54.926;73.496;2022-11-15T07:48:39;2.15;;;1.33;;
59907;SDS011;61804;54.926;73.496;2022-11-15T07:51:27;1.77;;;1.05;;
59907;SDS011;61804;54.926;73.496;2022-11-15T07:54:17;0.80;;;0.68;;
59907;SDS011;61804;54.926;73.496;2022-11-15T07:57:11;1.00;;;0.85;;
59907;SDS011;61804;54.926;73.496;2022-11-15T07:59:57;1.05;;;0.93;;
59907;SDS011;61804;54.926;73.496;2022-11-15T08:02:43;3.05;;;1.70;;
59907;SDS011;61804;54.926;73.496;2022-11-15T08:05:30;3.92;;;2.70;;
59907;SDS011;61804;54.926;73.496;2022-11-15T08:08:17;1.50;;;1.40;;
59907;SDS011;61804;54.926;73.496;2022-11-15T08:11:03;11.63;;;8.02;;
59907;SDS011;61804;54.926;73.496;2022-11-15T08:13:55;2.67;;;2.03;;
59907;SDS011;61804;54.926;73.496;2022-11-15T08:16:40;1.63;;;1.52;;
59907;SDS011;61804;54.926;73.496;2022-11-15T08:19:28;2.35;;;2.15;;
59907;SDS011;61804;54.926;73.496;2022-11-15T08:22:14;2.28;;;1.55;;
59907;SDS011;61804;54.926;73.496;2022-11-15T08:24:59;5.53;;;5.03;;
59907;SDS011;61804;54.926;73.496;2022-11-15T08:27:45;4.22;;;3.40;;
59907;SDS011;61804;54.926;73.496;2022-11-15T08:30:35;1.98;;;1.85;;
59907;SDS011;61804;54.926;73.496;2022-11-15T08:33:21;2.88;;;2.22;;
59907;SDS011;61804;54.926;73.496;2022-11-15T08:36:18;1.98;;;1.85;;
59907;SDS011;61804;54.926;73.496;2022-11-15T08:39:12;1.95;;;1.60;;
59907;SDS011;61804;54.926;73.496;2022-11-15T08:41:59;2.17;;;1.98;;
59907;SDS011;61804;54.926;73.496;2022-11-15T08:44:49;3.25;;;1.70;;
59907;SDS011;61804;54.926;73.496;2022-11-15T08:47:36;1.90;;;1.67;;
59907;SDS011;61804;54.926;73.496;2022-11-15T08:50:22;2.70;;;2.42;;
59907;SDS011;61804;54.926;73.496;2022-11-15T08:53:13;2.03;;;1.42;;
59907;SDS011;61804;54.926;73.496;2022-11-15T08:56:09;1.15;;;1.05;;
59907;SDS011;61804;54.926;73.496;2022-11-15T08:59:00;2.10;;;1.80;;
59907;SDS011;61804;54.926;73.496;2022-11-15T09:01:46;1.45;;;1.35;;
59907;SDS011;61804;54.926;73.496;2022-11-15T09:07:18;2.30;;;2.10;;
59907;SDS011;61804;54.926;73.496;2022-11-15T09:10:04;2.92;;;2.35;;
59907;SDS011;61804;54.926;73.496;2022-11-15T09:12:50;3.63;;;2.90;;
59907;SDS011;61804;54.926;73.496;2022-11-15T09:15:35;6.45;;;5.95;;
59907;SDS011;61804;54.926;73.496;2022-11-15T09:18:21;2.42;;;2.22;;
59907;SDS011;61804;54.926;73.496;2022-11-15T09:21:09;3.33;;;3.03;;
59907;SDS011;61804;54.926;73.496;2022-11-15T09:23:56;1.90;;;1.80;;
59907;SDS011;61804;54.926;73.496;2022-11-15T09:26:41;3.88;;;2.13;;
59907;SDS011;61804;54.926;73.496;2022-11-15T09:29:31;5.70;;;4.25;;
59907;SDS011;61804;54.926;73.496;2022-11-15T09:32:16;4.40;;;3.22;;
59907;SDS011;61804;54.926;73.496;2022-11-15T09:35:02;8.07;;;6.53;;
59907;SDS011;61804;54.926;73.496;2022-11-15T09:37:49;3.08;;;2.40;;
59907;SDS011;61804;54.926;73.496;2022-11-15T09:40:37;3.05;;;2.63;;
59907;SDS011;61804;54.926;73.496;2022-11-15T09:43:27;3.30;;;3.00;;
59907;SDS011;61804;54.926;73.496;2022-11-15T09:46:15;3.20;;;2.90;;
59907;SDS011;61804;54.926;73.496;2022-11-15T09:49:19;6.00;;;4.90;;
59907;SDS011;61804;54.926;73.496;2022-11-15T09:52:02;9.57;;;4.40;;
59907;SDS011;61804;54.926;73.496;2022-11-15T09:59:49;5.22;;;4.72;;
59907;SDS011;61804;54.926;73.496;2022-11-15T10:10:35;5.55;;;4.40;;
59907;SDS011;61804;54.926;73.496;2022-11-15T10:13:06;6.20;;;4.57;;
59907;SDS011;61804;54.926;73.496;2022-11-15T10:15:35;9.25;;;8.35;;
59907;SDS011;61804;54.926;73.496;2022-11-15T10:18:14;10.38;;;7.70;;
59907;SDS011;61804;54.926;73.496;2022-11-15T10:20:47;4.93;;;4.35;;
59907;SDS011;61804;54.926;73.496;2022-11-15T10:23:17;10.10;;;6.78;;
59907;SDS011;61804;54.926;73.496;2022-11-15T10:25:45;8.32;;;5.50;;
59907;SDS011;61804;54.926;73.496;2022-11-15T10:30:49;7.57;;;3.83;;
59907;SDS011;61804;54.926;73.496;2022-11-15T10:33:31;4.93;;;4.32;;
59907;SDS011;61804;54.926;73.496;2022-11-15T10:46:40;8.68;;;5.57;;
59907;SDS011;61804;54.926;73.496;2022-11-15T10:49:15;7.22;;;4.22;;
59907;SDS011;61804;54.926;73.496;2022-11-15T10:51:47;7.72;;;4.55;;
59907;SDS011;61804;54.926;73.496;2022-11-15T10:54:19;6.45;;;4.88;;
59907;SDS011;61804;54.926;73.496;2022-11-15T10:56:50;13.07;;;6.05;;
59907;SDS011;61804;54.926;73.496;2022-11-15T10:59:29;6.47;;;4.38;;
59907;SDS011;61804;54.926;73.496;2022-11-15T11:02:30;11.18;;;7.18;;
59907;SDS011;61804;54.926;73.496;2022-11-15T11:05:07;6.07;;;4.03;;
59907;SDS011;61804;54.926;73.496;2022-11-15T11:07:56;4.10;;;3.70;;
59907;SDS011;61804;54.926;73.496;2022-11-15T11:10:25;4.25;;;3.55;;
59907;SDS011;61804;54.926;73.496;2022-11-15T11:12:54;5.72;;;3.80;;
59907;SDS011;61804;54.926;73.496;2022-11-15T11:15:33;4.45;;;3.55;;
59907;SDS011;61804;54.926;73.496;2022-11-15T11:18:07;4.80;;;4.35;;
59907;SDS011;61804;54.926;73.496;2022-11-15T11:20:44;3.42;;;2.63;;
59907;SDS011;61804;54.926;73.496;2022-11-15T11:29:08;4.05;;;3.65;;
59907;SDS011;61804;54.926;73.496;2022-11-15T11:40:07;3.75;;;3.45;;
59907;SDS011;61804;54.926;73.496;2022-11-15T11:48:22;6.22;;;5.63;;
59907;SDS011;61804;54.926;73.496;2022-11-15T11:50:51;5.35;;;3.70;;
59907;SDS011;61804;54.926;73.496;2022-11-15T11:53:30;4.38;;;3.45;;
59907;SDS011;61804;54.926;73.496;2022-11-15T11:56:01;4.97;;;3.75;;
59907;SDS011;61804;54.926;73.496;2022-11-15T11:58:36;4.82;;;3.53;;
59907;SDS011;61804;54.926;73.496;2022-11-15T12:01:24;6.10;;;4.57;;
59907;SDS011;61804;54.926;73.496;2022-11-15T12:03:55;2.70;;;2.47;;
59907;SDS011;61804;54.926;73.496;2022-11-15T12:06:31;5.28;;;4.57;;
59907;SDS011;61804;54.926;73.496;2022-11-15T12:14:38;12.32;;;11.00;;
59907;SDS011;61804;54.926;73.496;2022-11-15T12:17:02;9.85;;;6.07;;
59907;SDS011;61804;54.926;73.496;2022-11-15T12:19:33;17.40;;;12.57;;
59907;SDS011;61804;54.926;73.496;2022-11-15T12:29:27;42.33;;;29.58;;
59907;SDS011;61804;54.926;73.496;2022-11-15T12:31:57;30.70;;;23.30;;
59907;SDS011;61804;54.926;73.496;2022-11-15T12:36:55;42.42;;;28.52;;
59907;SDS011;61804;54.926;73.496;2022-11-15T12:40:02;9.43;;;6.15;;
59907;SDS011;61804;54.926;73.496;2022-11-15T12:47:22;7.70;;;6.28;;
59907;SDS011;61804;54.926;73.496;2022-11-15T12:50:01;9.20;;;8.18;;
59907;SDS011;61804;54.926;73.496;2022-11-15T12:52:28;8.45;;;7.63;;
59907;SDS011;61804;54.926;73.496;2022-11-15T12:54:57;4.63;;;4.22;;
59907;SDS011;61804;54.926;73.496;2022-11-15T12:57:28;12.82;;;8.80;;
59907;SDS011;61804;54.926;73.496;2022-11-15T13:02:40;6.85;;;5.65;;
59907;SDS011;61804;54.926;73.496;2022-11-15T13:12:58;7.95;;;6.95;;
59907;SDS011;61804;54.926;73.496;2022-11-15T13:17:57;7.32;;;5.60;;
59907;SDS011;61804;54.926;73.496;2022-11-15T13:20:27;7.68;;;6.88;;
59907;SDS011;61804;54.926;73.496;2022-11-15T13:30:35;3.80;;;3.50;;
59907;SDS011;61804;54.926;73.496;2022-11-15T13:35:56;9.35;;;6.88;;
59907;SDS011;61804;54.926;73.496;2022-11-15T13:40:55;6.60;;;5.97;;
59907;SDS011;61804;54.926;73.496;2022-11-15T13:48:35;10.48;;;8.75;;
59907;SDS011;61804;54.926;73.496;2022-11-15T13:51:08;18.80;;;10.43;;
59907;SDS011;61804;54.926;73.496;2022-11-15T13:53:38;6.93;;;5.22;;
59907;SDS011;61804;54.926;73.496;2022-11-15T13:56:18;7.97;;;7.05;;
59907;SDS011;61804;54.926;73.496;2022-11-15T13:58:52;9.15;;;6.15;;
59907;SDS011;61804;54.926;73.496;2022-11-15T14:01:21;8.15;;;6.85;;
59907;SDS011;61804;54.926;73.496;2022-11-15T14:03:56;20.80;;;14.93;;
59907;SDS011;61804;54.926;73.496;2022-11-15T14:06:28;20.52;;;12.95;;
59907;SDS011;61804;54.926;73.496;2022-11-15T14:11:37;10.05;;;7.93;;
59907;SDS011;61804;54.926;73.496;2022-11-15T14:14:11;12.25;;;10.45;;
59907;SDS011;61804;54.926;73.496;2022-11-15T14:16:43;16.23;;;13.15;;
59907;SDS011;61804;54.926;73.496;2022-11-15T14:24:46;12.00;;;8.93;;
59907;SDS011;61804;54.926;73.496;2022-11-15T14:27:24;5.93;;;5.03;;
59907;SDS011;61804;54.926;73.496;2022-11-15T14:29:52;4.63;;;4.15;;
59907;SDS011;61804;54.926;73.496;2022-11-15T14:32:21;3.45;;;2.60;;
59907;SDS011;61804;54.926;73.496;2022-11-15T14:34:53;5.05;;;3.33;;
59907;SDS011;61804;54.926;73.496;2022-11-15T14:37:22;4.43;;;3.97;;
59907;SDS011;61804;54.926;73.496;2022-11-15T14:40:00;4.75;;;3.45;;
59907;SDS011;61804;54.926;73.496;2022-11-15T14:42:29;7.70;;;4.60;;
59907;SDS011;61804;54.926;73.496;2022-11-15T14:45:07;3.53;;;2.88;;
59907;SDS011;61804;54.926;73.496;2022-11-15T14:47:36;4.82;;;2.85;;
59907;SDS011;61804;54.926;73.496;2022-11-15T14:50:11;8.15;;;6.70;;
59907;SDS011;61804;54.926;73.496;2022-11-15T14:52:38;15.07;;;10.82;;
59907;SDS011;61804;54.926;73.496;2022-11-15T14:55:25;5.30;;;4.90;;
59907;SDS011;61804;54.926;73.496;2022-11-15T14:58:02;5.73;;;4.27;;
59907;SDS011;61804;54.926;73.496;2022-11-15T15:00:30;2.63;;;2.42;;
59907;SDS011;61804;54.926;73.496;2022-11-15T15:02:58;5.20;;;4.75;;
59907;SDS011;61804;54.926;73.496;2022-11-15T15:08:09;19.85;;;13.23;;
59907;SDS011;61804;54.926;73.496;2022-11-15T15:10:42;11.85;;;6.78;;
59907;SDS011;61804;54.926;73.496;2022-11-15T15:13:17;14.80;;;8.73;;
59907;SDS011;61804;54.926;73.496;2022-11-15T15:15:46;10.82;;;9.32;;
59907;SDS011;61804;54.926;73.496;2022-11-15T15:18:13;10.23;;;8.13;;
59907;SDS011;61804;54.926;73.496;2022-11-15T15:20:42;6.70;;;6.15;;
59907;SDS011;61804;54.926;73.496;2022-11-15T15:23:18;8.07;;;6.18;;
59907;SDS011;61804;54.926;73.496;2022-11-15T15:25:46;7.45;;;5.50;;
59907;SDS011;61804;54.926;73.496;2022-11-15T15:28:15;7.80;;;6.85;;
59907;SDS011;61804;54.926;73.496;2022-11-15T15:30:42;7.97;;;5.03;;
59907;SDS011;61804;54.926;73.496;2022-11-15T15:33:15;7.03;;;6.15;;
59907;SDS011;61804;54.926;73.496;2022-11-15T15:35:48;8.85;;;7.95;;
59907;SDS011;61804;54.926;73.496;2022-11-15T15:38:16;9.45;;;7.97;;
59907;SDS011;61804;54.926;73.496;2022-11-15T15:40:49;8.27;;;6.03;;
59907;SDS011;61804;54.926;73.496;2022-11-15T15:43:16;6.40;;;5.72;;
59907;SDS011;61804;54.926;73.496;2022-11-15T15:45:45;10.30;;;6.97;;
59907;SDS011;61804;54.926;73.496;2022-11-15T15:48:14;7.75;;;7.00;;
59907;SDS011;61804;54.926;73.496;2022-11-15T15:50:45;5.65;;;4.93;;
59907;SDS011;61804;54.926;73.496;2022-11-15T15:53:18;6.60;;;5.32;;
59907;SDS011;61804;54.926;73.496;2022-11-15T15:55:45;8.43;;;5.97;;
59907;SDS011;61804;54.926;73.496;2022-11-15T15:58:18;12.30;;;9.25;;
59907;SDS011;61804;54.926;73.496;2022-11-15T16:00:46;9.32;;;8.43;;
59907;SDS011;61804;54.926;73.496;2022-11-15T16:03:13;11.60;;;8.38;;
59907;SDS011;61804;54.926;73.496;2022-11-15T16:05:41;9.48;;;8.40;;
59907;SDS011;61804;54.926;73.496;2022-11-15T16:08:20;10.30;;;4.95;;
59907;SDS011;61804;54.926;73.496;2022-11-15T16:10:48;8.90;;;6.18;;
59907;SDS011;61804;54.926;73.496;2022-11-15T16:13:27;3.22;;;2.70;;
59907;SDS011;61804;54.926;73.496;2022-11-15T16:15:54;3.45;;;3.15;;
59907;SDS011;61804;54.926;73.496;2022-11-15T16:18:23;5.03;;;3.25;;
59907;SDS011;61804;54.926;73.496;2022-11-15T16:20:51;4.22;;;3.75;;
59907;SDS011;61804;54.926;73.496;2022-11-15T16:23:33;4.05;;;3.60;;
59907;SDS011;61804;54.926;73.496;2022-11-15T16:26:20;4.95;;;3.25;;
59907;SDS011;61804;54.926;73.496;2022-11-15T16:28:48;1.88;;;1.63;;
59907;SDS011;61804;54.926;73.496;2022-11-15T16:31:16;2.90;;;2.55;;
59907;SDS011;61804;54.926;73.496;2022-11-15T16:33:48;3.42;;;2.35;;
59907;SDS011;61804;54.926;73.496;2022-11-15T16:36:21;4.60;;;3.03;;
59907;SDS011;61804;54.926;73.496;2022-11-15T16:38:55;8.07;;;4.72;;
59907;SDS011;61804;54.926;73.496;2022-11-15T16:41:29;6.53;;;5.28;;
59907;SDS011;61804;54.926;73.496;2022-11-15T16:44:02;8.77;;;5.38;;
59907;SDS011;61804;54.926;73.496;2022-11-15T16:46:31;6.22;;;3.97;;
59907;SDS011;61804;54.926;73.496;2022-11-15T16:49:04;3.03;;;2.83;;
59907;SDS011;61804;54.926;73.496;2022-11-15T16:51:37;3.75;;;2.78;;
59907;SDS011;61804;54.926;73.496;2022-11-15T16:54:05;3.05;;;2.58;;
59907;SDS011;61804;54.926;73.496;2022-11-15T16:56:33;3.05;;;2.67;;
59907;SDS011;61804;54.926;73.496;2022-11-15T16:59:01;8.82;;;3.75;;
59907;SDS011;61804;54.926;73.496;2022-11-15T17:01:34;7.85;;;2.80;;
59907;SDS011;61804;54.926;73.496;2022-11-15T17:04:03;6.70;;;4.63;;
59907;SDS011;61804;54.926;73.496;2022-11-15T17:06:40;6.93;;;6.07;;
59907;SDS011;61804;54.926;73.496;2022-11-15T17:09:16;4.40;;;3.30;;
59907;SDS011;61804;54.926;73.496;2022-11-15T17:11:44;2.38;;;2.15;;
59907;SDS011;61804;54.926;73.496;2022-11-15T17:14:23;1.55;;;1.35;;
59907;SDS011;61804;54.926;73.496;2022-11-15T17:17:00;2.38;;;1.88;;
59907;SDS011;61804;54.926;73.496;2022-11-15T17:19:28;3.28;;;2.03;;
59907;SDS011;61804;54.926;73.496;2022-11-15T17:21:55;3.10;;;1.83;;
59907;SDS011;61804;54.926;73.496;2022-11-15T17:24:23;4.60;;;3.20;;
59907;SDS011;61804;54.926;73.496;2022-11-15T17:26:51;2.97;;;2.70;;
59907;SDS011;61804;54.926;73.496;2022-11-15T17:29:25;2.22;;;1.75;;
59907;SDS011;61804;54.926;73.496;2022-11-15T17:32:04;3.83;;;2.58;;
59907;SDS011;61804;54.926;73.496;2022-11-15T17:34:32;4.25;;;3.42;;
59907;SDS011;61804;54.926;73.496;2022-11-15T17:37:01;11.00;;;6.55;;
59907;SDS011;61804;54.926;73.496;2022-11-15T17:39:30;7.50;;;4.88;;
59907;SDS011;61804;54.926;73.496;2022-11-15T17:41:58;10.63;;;5.63;;
59907;SDS011;61804;54.926;73.496;2022-11-15T17:44:27;6.20;;;3.53;;
59907;SDS011;61804;54.926;73.496;2022-11-15T17:46:55;7.15;;;4.55;;
59907;SDS011;61804;54.926;73.496;2022-11-15T17:49:36;7.00;;;3.45;;
59907;SDS011;61804;54.926;73.496;2022-11-15T17:52:07;6.80;;;4.85;;
59907;SDS011;61804;54.926;73.496;2022-11-15T17:54:36;8.43;;;5.07;;
59907;SDS011;61804;54.926;73.496;2022-11-15T17:57:14;4.50;;;3.83;;
59907;SDS011;61804;54.926;73.496;2022-11-15T17:59:42;4.55;;;3.38;;
59907;SDS011;61804;54.926;73.496;2022-11-15T18:02:10;6.45;;;3.58;;
59907;SDS011;61804;54.926;73.496;2022-11-15T18:04:38;3.35;;;2.53;;
59907;SDS011;61804;54.926;73.496;2022-11-15T18:07:08;3.15;;;2.30;;
59907;SDS011;61804;54.926;73.496;2022-11-15T18:09:37;3.83;;;2.13;;
59907;SDS011;61804;54.926;73.496;2022-11-15T18:12:12;2.35;;;1.80;;
59907;SDS011;61804;54.926;73.496;2022-11-15T18:14:42;2.55;;;1.95;;
59907;SDS011;61804;54.926;73.496;2022-11-15T18:17:10;4.15;;;2.13;;
59907;SDS011;61804;54.926;73.496;2022-11-15T18:19:39;2.38;;;2.22;;
59907;SDS011;61804;54.926;73.496;2022-11-15T18:22:06;2.75;;;2.35;;
59907;SDS011;61804;54.926;73.496;2022-11-15T18:24:36;2.83;;;2.38;;
59907;SDS011;61804;54.926;73.496;2022-11-15T18:27:08;2.53;;;2.33;;
59907;SDS011;61804;54.926;73.496;2022-11-15T18:29:40;2.65;;;2.10;;
59907;SDS011;61804;54.926;73.496;2022-11-15T18:32:16;3.40;;;2.25;;
59907;SDS011;61804;54.926;73.496;2022-11-15T18:34:43;2.92;;;2.15;;
59907;SDS011;61804;54.926;73.496;2022-11-15T18:37:11;2.63;;;2.42;;
59907;SDS011;61804;54.926;73.496;2022-11-15T18:39:52;2.10;;;1.60;;